ENSB Airport Information

Runway Information
Runway 10 Length 7608 ft width 148 ft
Elevation 63 ft Threshold 199 ft Heading 105
Runway 28 Length 7608 ft Width 148 ft
Elevation 73 ft Threshold 395 ft Heading 285
Airport Frequencies
Type AFIS Name INFO Frequency 118.1 MHZ
Type AFIS Name INFO Frequency 884 MHZ
Airport Navaids
Airport Weather Information & NOTAM
ADDS - METARS form results

(1140 UTC 11 August 2022)
Data provider http://aviationweather.gov/metar/data/
 
METAR text: ENSB 111120Z 11012KT 9999 FEW020 SCT025 BKN170 09/04 Q0994 NOSIG RMK WIND 1400FT 09012KT
Conditions at: ENSB (SVALBARD/LONGYEA, SJ) observed 1120 UTC 11 August 2022
Temperature: 9.0°C (48°F)
Dewpoint: 4.0°C (39°F) [RH = 71%]
Pressure (altimeter): 29.35 inches Hg (994.0 mb)
Winds: from the ESE (110 degrees) at 14 MPH (12 knots; 6.2 m/s)
Visibility: 6 or more miles (10+ km)
Ceiling: 17000 feet AGL
Clouds: few clouds at 2000 feet AGL
scattered clouds at 2500 feet AGL
broken clouds at 17000 feet AGL
Weather: no significant weather observed at this time

METAR text: ENSB 111050Z 12013KT 9999 FEW030 BKN090 09/04 Q0994 NOSIG RMK WIND 1400FT 09012KT
Conditions at: ENSB (SVALBARD/LONGYEA, SJ) observed 1050 UTC 11 August 2022
Temperature: 9.0°C (48°F)
Dewpoint: 4.0°C (39°F) [RH = 71%]
Pressure (altimeter): 29.35 inches Hg (994.0 mb)
Winds: from the ESE (120 degrees) at 15 MPH (13 knots; 6.7 m/s)
Visibility: 6 or more miles (10+ km)
Ceiling: 9000 feet AGL
Clouds: few clouds at 3000 feet AGL
broken clouds at 9000 feet AGL
Weather: no significant weather observed at this time

Forecast for: ENSB (SVALBARD/LONGYEA, SJ)
Text: TAF ENSB 1106/1206 12012KT 9999 FEW020 BKN035
Forecast period: 0600 UTC 11 August 2022 to 0600 UTC 12 August 2022
Forecast type: FROM: standard forecast or significant change
Winds: from the ESE (120 degrees) at 14 MPH (12 knots; 6.2 m/s)
Visibility: 6 or more miles (10+ km)
Ceiling: 3500 feet AGL
Clouds: few clouds at 2000 feet AGL
broken clouds at 3500 feet AGL
Weather: no significant weather forecast for this period